sensor_id;sensor_type;location;lat;lon;timestamp;P1;durP1;ratioP1;P2;durP2;ratioP2
51560;SDS011;37654;51.262;17.058;2023-05-27T00:01:47;20.17;;;5.45;;
51560;SDS011;37654;51.262;17.058;2023-05-27T00:04:12;24.13;;;5.40;;
51560;SDS011;37654;51.262;17.058;2023-05-27T00:06:37;22.77;;;5.25;;
51560;SDS011;37654;51.262;17.058;2023-05-27T00:09:03;16.70;;;6.15;;
51560;SDS011;37654;51.262;17.058;2023-05-27T00:11:29;25.95;;;7.45;;
51560;SDS011;37654;51.262;17.058;2023-05-27T00:13:54;17.17;;;5.55;;
51560;SDS011;37654;51.262;17.058;2023-05-27T00:16:20;22.48;;;5.57;;
51560;SDS011;37654;51.262;17.058;2023-05-27T00:18:46;23.48;;;5.90;;
51560;SDS011;37654;51.262;17.058;2023-05-27T00:21:12;26.50;;;6.05;;
51560;SDS011;37654;51.262;17.058;2023-05-27T00:23:38;22.10;;;5.22;;
51560;SDS011;37654;51.262;17.058;2023-05-27T00:26:03;32.00;;;6.43;;
51560;SDS011;37654;51.262;17.058;2023-05-27T00:28:28;24.63;;;5.88;;
51560;SDS011;37654;51.262;17.058;2023-05-27T00:30:56;22.67;;;5.10;;
51560;SDS011;37654;51.262;17.058;2023-05-27T00:33:22;21.13;;;5.05;;
51560;SDS011;37654;51.262;17.058;2023-05-27T00:35:48;18.02;;;5.18;;
51560;SDS011;37654;51.262;17.058;2023-05-27T00:38:13;23.63;;;5.90;;
51560;SDS011;37654;51.262;17.058;2023-05-27T00:40:39;26.65;;;6.45;;
51560;SDS011;37654;51.262;17.058;2023-05-27T00:43:05;20.77;;;5.13;;
51560;SDS011;37654;51.262;17.058;2023-05-27T00:45:31;20.50;;;5.35;;
51560;SDS011;37654;51.262;17.058;2023-05-27T00:47:57;24.83;;;6.22;;
51560;SDS011;37654;51.262;17.058;2023-05-27T00:50:23;23.17;;;5.68;;
51560;SDS011;37654;51.262;17.058;2023-05-27T00:52:50;21.83;;;6.20;;
51560;SDS011;37654;51.262;17.058;2023-05-27T00:55:16;23.15;;;5.53;;
51560;SDS011;37654;51.262;17.058;2023-05-27T00:57:42;21.20;;;5.50;;
51560;SDS011;37654;51.262;17.058;2023-05-27T01:00:09;22.52;;;5.22;;
51560;SDS011;37654;51.262;17.058;2023-05-27T01:02:35;22.40;;;5.50;;
51560;SDS011;37654;51.262;17.058;2023-05-27T01:05:05;23.27;;;5.32;;
51560;SDS011;37654;51.262;17.058;2023-05-27T01:13:11;27.90;;;8.13;;
51560;SDS011;37654;51.262;17.058;2023-05-27T01:15:43;28.08;;;6.15;;
51560;SDS011;37654;51.262;17.058;2023-05-27T01:18:09;21.73;;;6.18;;
51560;SDS011;37654;51.262;17.058;2023-05-27T01:20:37;19.98;;;5.55;;
51560;SDS011;37654;51.262;17.058;2023-05-27T01:23:06;20.88;;;5.82;;
51560;SDS011;37654;51.262;17.058;2023-05-27T01:25:33;18.42;;;4.75;;
51560;SDS011;37654;51.262;17.058;2023-05-27T01:27:58;22.55;;;4.70;;
51560;SDS011;37654;51.262;17.058;2023-05-27T01:30:24;21.20;;;5.65;;
51560;SDS011;37654;51.262;17.058;2023-05-27T01:35:27;25.13;;;5.82;;
51560;SDS011;37654;51.262;17.058;2023-05-27T01:38:07;34.65;;;7.20;;
51560;SDS011;37654;51.262;17.058;2023-05-27T01:40:36;26.73;;;5.97;;
51560;SDS011;37654;51.262;17.058;2023-05-27T01:43:03;22.98;;;5.70;;
51560;SDS011;37654;51.262;17.058;2023-05-27T01:45:30;26.13;;;6.15;;
51560;SDS011;37654;51.262;17.058;2023-05-27T01:47:57;24.33;;;5.30;;
51560;SDS011;37654;51.262;17.058;2023-05-27T01:50:23;21.38;;;5.20;;
51560;SDS011;37654;51.262;17.058;2023-05-27T01:52:48;23.75;;;6.13;;
51560;SDS011;37654;51.262;17.058;2023-05-27T01:55:14;33.00;;;6.40;;
51560;SDS011;37654;51.262;17.058;2023-05-27T01:57:42;21.70;;;5.47;;
51560;SDS011;37654;51.262;17.058;2023-05-27T02:00:07;27.58;;;6.13;;
51560;SDS011;37654;51.262;17.058;2023-05-27T02:02:36;25.35;;;5.85;;
51560;SDS011;37654;51.262;17.058;2023-05-27T02:05:01;27.00;;;6.00;;
51560;SDS011;37654;51.262;17.058;2023-05-27T02:07:27;29.77;;;6.60;;
51560;SDS011;37654;51.262;17.058;2023-05-27T02:09:53;17.02;;;5.35;;
51560;SDS011;37654;51.262;17.058;2023-05-27T02:12:18;21.88;;;6.25;;
51560;SDS011;37654;51.262;17.058;2023-05-27T02:14:45;22.50;;;5.85;;
51560;SDS011;37654;51.262;17.058;2023-05-27T02:17:10;24.73;;;6.60;;
51560;SDS011;37654;51.262;17.058;2023-05-27T02:19:36;24.05;;;6.65;;
51560;SDS011;37654;51.262;17.058;2023-05-27T02:22:02;20.23;;;5.20;;
51560;SDS011;37654;51.262;17.058;2023-05-27T02:24:27;18.20;;;5.90;;
51560;SDS011;37654;51.262;17.058;2023-05-27T02:26:53;29.55;;;8.55;;
51560;SDS011;37654;51.262;17.058;2023-05-27T02:29:18;23.55;;;6.53;;
51560;SDS011;37654;51.262;17.058;2023-05-27T02:31:44;18.10;;;5.68;;
51560;SDS011;37654;51.262;17.058;2023-05-27T02:34:09;21.23;;;5.70;;
51560;SDS011;37654;51.262;17.058;2023-05-27T02:36:35;31.55;;;5.05;;
51560;SDS011;37654;51.262;17.058;2023-05-27T02:39:00;24.13;;;5.75;;
51560;SDS011;37654;51.262;17.058;2023-05-27T02:41:27;24.40;;;5.47;;
51560;SDS011;37654;51.262;17.058;2023-05-27T02:43:52;24.95;;;5.95;;
51560;SDS011;37654;51.262;17.058;2023-05-27T02:46:17;22.92;;;5.80;;
51560;SDS011;37654;51.262;17.058;2023-05-27T02:48:43;24.58;;;5.65;;
51560;SDS011;37654;51.262;17.058;2023-05-27T02:51:08;22.70;;;6.20;;
51560;SDS011;37654;51.262;17.058;2023-05-27T02:53:34;19.98;;;5.72;;
51560;SDS011;37654;51.262;17.058;2023-05-27T02:55:59;26.15;;;6.38;;
51560;SDS011;37654;51.262;17.058;2023-05-27T02:58:25;21.73;;;5.55;;
51560;SDS011;37654;51.262;17.058;2023-05-27T03:00:50;23.42;;;6.32;;
51560;SDS011;37654;51.262;17.058;2023-05-27T03:03:15;22.65;;;6.95;;
51560;SDS011;37654;51.262;17.058;2023-05-27T03:05:41;23.08;;;6.43;;
51560;SDS011;37654;51.262;17.058;2023-05-27T03:08:06;25.98;;;6.05;;
51560;SDS011;37654;51.262;17.058;2023-05-27T03:10:32;29.33;;;9.13;;
51560;SDS011;37654;51.262;17.058;2023-05-27T03:12:58;20.50;;;6.20;;
51560;SDS011;37654;51.262;17.058;2023-05-27T03:15:23;31.48;;;6.88;;
51560;SDS011;37654;51.262;17.058;2023-05-27T03:17:49;23.40;;;6.13;;
51560;SDS011;37654;51.262;17.058;2023-05-27T03:20:14;22.98;;;6.03;;
51560;SDS011;37654;51.262;17.058;2023-05-27T03:22:41;21.50;;;6.45;;
51560;SDS011;37654;51.262;17.058;2023-05-27T03:25:07;19.95;;;5.82;;
51560;SDS011;37654;51.262;17.058;2023-05-27T03:27:33;27.40;;;6.70;;
51560;SDS011;37654;51.262;17.058;2023-05-27T03:29:59;29.60;;;6.55;;
51560;SDS011;37654;51.262;17.058;2023-05-27T03:32:24;28.88;;;5.88;;
51560;SDS011;37654;51.262;17.058;2023-05-27T03:34:50;23.80;;;6.13;;
51560;SDS011;37654;51.262;17.058;2023-05-27T03:37:15;24.60;;;7.70;;
51560;SDS011;37654;51.262;17.058;2023-05-27T03:39:41;21.00;;;6.63;;
51560;SDS011;37654;51.262;17.058;2023-05-27T03:42:06;23.80;;;6.60;;
51560;SDS011;37654;51.262;17.058;2023-05-27T03:44:32;17.25;;;5.95;;
51560;SDS011;37654;51.262;17.058;2023-05-27T03:46:57;26.27;;;6.05;;
51560;SDS011;37654;51.262;17.058;2023-05-27T03:49:23;26.75;;;6.85;;
51560;SDS011;37654;51.262;17.058;2023-05-27T03:51:48;24.70;;;6.85;;
51560;SDS011;37654;51.262;17.058;2023-05-27T03:54:14;28.27;;;7.72;;
51560;SDS011;37654;51.262;17.058;2023-05-27T03:56:39;20.25;;;6.43;;
51560;SDS011;37654;51.262;17.058;2023-05-27T03:59:05;25.50;;;6.70;;
51560;SDS011;37654;51.262;17.058;2023-05-27T04:01:31;24.80;;;7.88;;
51560;SDS011;37654;51.262;17.058;2023-05-27T04:03:57;26.48;;;6.72;;
51560;SDS011;37654;51.262;17.058;2023-05-27T04:06:23;25.98;;;6.53;;
51560;SDS011;37654;51.262;17.058;2023-05-27T04:08:48;24.00;;;6.53;;
51560;SDS011;37654;51.262;17.058;2023-05-27T04:11:14;25.27;;;7.20;;
51560;SDS011;37654;51.262;17.058;2023-05-27T04:13:40;28.05;;;7.70;;
51560;SDS011;37654;51.262;17.058;2023-05-27T04:16:05;21.92;;;6.78;;
51560;SDS011;37654;51.262;17.058;2023-05-27T04:18:32;24.08;;;7.72;;
51560;SDS011;37654;51.262;17.058;2023-05-27T04:20:58;20.90;;;7.57;;
51560;SDS011;37654;51.262;17.058;2023-05-27T04:23:23;28.50;;;6.85;;
51560;SDS011;37654;51.262;17.058;2023-05-27T04:25:49;27.35;;;8.73;;
51560;SDS011;37654;51.262;17.058;2023-05-27T04:28:15;20.25;;;6.78;;
51560;SDS011;37654;51.262;17.058;2023-05-27T04:30:40;28.40;;;7.90;;
51560;SDS011;37654;51.262;17.058;2023-05-27T04:33:06;26.17;;;6.53;;
51560;SDS011;37654;51.262;17.058;2023-05-27T04:35:32;19.92;;;6.82;;
51560;SDS011;37654;51.262;17.058;2023-05-27T04:37:58;29.45;;;6.55;;
51560;SDS011;37654;51.262;17.058;2023-05-27T04:40:26;25.77;;;7.07;;
51560;SDS011;37654;51.262;17.058;2023-05-27T04:42:52;28.40;;;6.88;;
51560;SDS011;37654;51.262;17.058;2023-05-27T04:45:17;26.38;;;6.65;;
51560;SDS011;37654;51.262;17.058;2023-05-27T04:47:43;29.48;;;7.53;;
51560;SDS011;37654;51.262;17.058;2023-05-27T04:50:09;23.05;;;6.95;;
51560;SDS011;37654;51.262;17.058;2023-05-27T04:52:38;23.70;;;7.72;;
51560;SDS011;37654;51.262;17.058;2023-05-27T04:55:06;21.90;;;5.63;;
51560;SDS011;37654;51.262;17.058;2023-05-27T04:57:33;17.80;;;6.78;;
51560;SDS011;37654;51.262;17.058;2023-05-27T04:59:59;27.83;;;7.07;;
51560;SDS011;37654;51.262;17.058;2023-05-27T05:02:29;26.30;;;8.65;;
51560;SDS011;37654;51.262;17.058;2023-05-27T05:05:05;18.85;;;6.18;;
51560;SDS011;37654;51.262;17.058;2023-05-27T05:07:33;24.30;;;6.57;;
51560;SDS011;37654;51.262;17.058;2023-05-27T05:10:01;22.83;;;6.68;;
51560;SDS011;37654;51.262;17.058;2023-05-27T05:12:26;22.08;;;6.28;;
51560;SDS011;37654;51.262;17.058;2023-05-27T05:14:52;17.42;;;6.10;;
51560;SDS011;37654;51.262;17.058;2023-05-27T05:17:17;21.55;;;5.90;;
51560;SDS011;37654;51.262;17.058;2023-05-27T05:19:44;31.48;;;6.20;;
51560;SDS011;37654;51.262;17.058;2023-05-27T05:22:10;18.55;;;5.13;;
51560;SDS011;37654;51.262;17.058;2023-05-27T05:24:39;20.88;;;5.20;;
51560;SDS011;37654;51.262;17.058;2023-05-27T05:27:05;23.13;;;5.38;;
51560;SDS011;37654;51.262;17.058;2023-05-27T05:29:32;25.58;;;6.90;;
51560;SDS011;37654;51.262;17.058;2023-05-27T05:31:58;24.70;;;6.05;;
51560;SDS011;37654;51.262;17.058;2023-05-27T05:34:23;15.30;;;4.95;;
51560;SDS011;37654;51.262;17.058;2023-05-27T05:36:48;20.35;;;5.47;;
51560;SDS011;37654;51.262;17.058;2023-05-27T05:39:14;15.13;;;5.07;;
51560;SDS011;37654;51.262;17.058;2023-05-27T05:41:40;17.40;;;5.45;;
51560;SDS011;37654;51.262;17.058;2023-05-27T05:44:06;18.75;;;4.82;;
51560;SDS011;37654;51.262;17.058;2023-05-27T05:46:31;19.30;;;5.28;;
51560;SDS011;37654;51.262;17.058;2023-05-27T05:48:57;21.35;;;4.40;;
51560;SDS011;37654;51.262;17.058;2023-05-27T05:51:22;16.02;;;4.43;;
51560;SDS011;37654;51.262;17.058;2023-05-27T05:53:48;18.17;;;4.38;;
51560;SDS011;37654;51.262;17.058;2023-05-27T05:56:13;22.27;;;5.28;;
51560;SDS011;37654;51.262;17.058;2023-05-27T05:58:38;18.33;;;4.45;;
51560;SDS011;37654;51.262;17.058;2023-05-27T06:01:04;15.00;;;4.68;;
51560;SDS011;37654;51.262;17.058;2023-05-27T06:03:30;18.42;;;4.00;;
51560;SDS011;37654;51.262;17.058;2023-05-27T06:05:55;15.77;;;4.50;;
51560;SDS011;37654;51.262;17.058;2023-05-27T06:08:20;17.30;;;4.75;;
51560;SDS011;37654;51.262;17.058;2023-05-27T06:10:46;13.07;;;4.30;;
51560;SDS011;37654;51.262;17.058;2023-05-27T06:13:11;15.00;;;4.60;;
51560;SDS011;37654;51.262;17.058;2023-05-27T06:15:37;15.93;;;5.25;;
51560;SDS011;37654;51.262;17.058;2023-05-27T06:18:03;20.42;;;5.95;;
51560;SDS011;37654;51.262;17.058;2023-05-27T06:20:29;17.00;;;4.60;;
51560;SDS011;37654;51.262;17.058;2023-05-27T06:22:55;17.55;;;4.72;;
51560;SDS011;37654;51.262;17.058;2023-05-27T06:25:20;8.82;;;3.95;;
51560;SDS011;37654;51.262;17.058;2023-05-27T06:27:46;13.35;;;4.50;;
51560;SDS011;37654;51.262;17.058;2023-05-27T06:30:12;13.52;;;4.10;;
51560;SDS011;37654;51.262;17.058;2023-05-27T06:32:37;14.48;;;3.70;;
51560;SDS011;37654;51.262;17.058;2023-05-27T06:35:03;17.75;;;4.70;;
51560;SDS011;37654;51.262;17.058;2023-05-27T06:37:29;14.10;;;4.40;;
51560;SDS011;37654;51.262;17.058;2023-05-27T06:39:54;14.82;;;4.50;;
51560;SDS011;37654;51.262;17.058;2023-05-27T06:42:20;19.88;;;4.55;;
51560;SDS011;37654;51.262;17.058;2023-05-27T06:44:47;17.58;;;4.40;;
51560;SDS011;37654;51.262;17.058;2023-05-27T06:47:13;13.77;;;4.05;;
51560;SDS011;37654;51.262;17.058;2023-05-27T06:49:38;15.55;;;4.90;;
51560;SDS011;37654;51.262;17.058;2023-05-27T06:52:04;17.02;;;5.05;;
51560;SDS011;37654;51.262;17.058;2023-05-27T06:54:30;14.30;;;4.40;;
51560;SDS011;37654;51.262;17.058;2023-05-27T06:56:56;15.65;;;4.53;;
51560;SDS011;37654;51.262;17.058;2023-05-27T06:59:21;13.80;;;4.05;;
51560;SDS011;37654;51.262;17.058;2023-05-27T07:01:47;17.95;;;4.07;;
51560;SDS011;37654;51.262;17.058;2023-05-27T07:04:12;14.60;;;3.40;;
51560;SDS011;37654;51.262;17.058;2023-05-27T07:06:38;12.95;;;3.97;;
51560;SDS011;37654;51.262;17.058;2023-05-27T07:09:03;13.95;;;3.85;;
51560;SDS011;37654;51.262;17.058;2023-05-27T07:11:29;13.73;;;4.15;;
51560;SDS011;37654;51.262;17.058;2023-05-27T07:13:56;12.43;;;3.88;;
51560;SDS011;37654;51.262;17.058;2023-05-27T07:16:22;12.77;;;4.88;;
51560;SDS011;37654;51.262;17.058;2023-05-27T07:18:47;9.80;;;4.00;;
51560;SDS011;37654;51.262;17.058;2023-05-27T07:21:12;12.63;;;3.33;;
51560;SDS011;37654;51.262;17.058;2023-05-27T07:23:38;11.90;;;3.92;;
51560;SDS011;37654;51.262;17.058;2023-05-27T07:26:03;13.02;;;4.07;;
51560;SDS011;37654;51.262;17.058;2023-05-27T07:28:29;25.58;;;4.47;;
51560;SDS011;37654;51.262;17.058;2023-05-27T07:30:54;11.93;;;4.13;;
51560;SDS011;37654;51.262;17.058;2023-05-27T07:33:20;11.88;;;3.92;;
51560;SDS011;37654;51.262;17.058;2023-05-27T07:35:46;16.23;;;4.38;;
51560;SDS011;37654;51.262;17.058;2023-05-27T07:38:11;14.40;;;4.38;;
51560;SDS011;37654;51.262;17.058;2023-05-27T07:40:37;11.70;;;3.65;;
51560;SDS011;37654;51.262;17.058;2023-05-27T07:43:02;15.90;;;3.88;;
51560;SDS011;37654;51.262;17.058;2023-05-27T07:45:28;12.25;;;3.42;;
51560;SDS011;37654;51.262;17.058;2023-05-27T07:47:53;16.05;;;4.43;;
51560;SDS011;37654;51.262;17.058;2023-05-27T07:50:19;13.75;;;3.70;;
51560;SDS011;37654;51.262;17.058;2023-05-27T07:52:44;11.00;;;3.30;;
51560;SDS011;37654;51.262;17.058;2023-05-27T07:55:10;12.40;;;3.60;;
51560;SDS011;37654;51.262;17.058;2023-05-27T07:57:35;10.07;;;3.08;;
51560;SDS011;37654;51.262;17.058;2023-05-27T08:00:01;12.35;;;3.25;;
51560;SDS011;37654;51.262;17.058;2023-05-27T08:02:27;11.52;;;2.85;;
51560;SDS011;37654;51.262;17.058;2023-05-27T08:04:53;10.60;;;3.25;;
51560;SDS011;37654;51.262;17.058;2023-05-27T08:07:18;9.52;;;2.65;;
51560;SDS011;37654;51.262;17.058;2023-05-27T08:09:43;8.82;;;2.80;;
51560;SDS011;37654;51.262;17.058;2023-05-27T08:12:09;12.68;;;3.33;;
51560;SDS011;37654;51.262;17.058;2023-05-27T08:14:34;8.40;;;2.55;;
51560;SDS011;37654;51.262;17.058;2023-05-27T08:17:00;19.35;;;2.88;;
51560;SDS011;37654;51.262;17.058;2023-05-27T08:19:26;7.32;;;2.08;;
51560;SDS011;37654;51.262;17.058;2023-05-27T08:21:52;7.20;;;2.10;;
51560;SDS011;37654;51.262;17.058;2023-05-27T08:24:18;8.65;;;2.95;;
51560;SDS011;37654;51.262;17.058;2023-05-27T08:26:46;10.70;;;3.22;;
51560;SDS011;37654;51.262;17.058;2023-05-27T08:29:12;10.63;;;2.45;;
51560;SDS011;37654;51.262;17.058;2023-05-27T08:31:38;14.32;;;3.67;;
51560;SDS011;37654;51.262;17.058;2023-05-27T08:34:05;9.25;;;3.20;;
51560;SDS011;37654;51.262;17.058;2023-05-27T08:36:30;8.70;;;2.53;;
51560;SDS011;37654;51.262;17.058;2023-05-27T08:38:56;10.80;;;3.13;;
51560;SDS011;37654;51.262;17.058;2023-05-27T08:41:22;6.97;;;2.30;;
51560;SDS011;37654;51.262;17.058;2023-05-27T08:43:48;9.48;;;2.40;;
51560;SDS011;37654;51.262;17.058;2023-05-27T08:46:14;6.10;;;2.30;;
51560;SDS011;37654;51.262;17.058;2023-05-27T08:48:40;6.82;;;2.83;;
51560;SDS011;37654;51.262;17.058;2023-05-27T08:51:06;11.00;;;3.70;;
51560;SDS011;37654;51.262;17.058;2023-05-27T08:53:34;9.65;;;2.72;;
51560;SDS011;37654;51.262;17.058;2023-05-27T08:56:00;9.20;;;2.83;;
51560;SDS011;37654;51.262;17.058;2023-05-27T08:58:27;9.75;;;3.00;;
51560;SDS011;37654;51.262;17.058;2023-05-27T09:00:53;4.95;;;2.33;;
51560;SDS011;37654;51.262;17.058;2023-05-27T09:03:19;11.98;;;2.97;;
51560;SDS011;37654;51.262;17.058;2023-05-27T09:05:45;10.35;;;3.03;;
51560;SDS011;37654;51.262;17.058;2023-05-27T09:08:11;11.48;;;2.70;;
51560;SDS011;37654;51.262;17.058;2023-05-27T09:10:37;12.15;;;3.20;;
51560;SDS011;37654;51.262;17.058;2023-05-27T09:13:03;21.40;;;4.53;;
51560;SDS011;37654;51.262;17.058;2023-05-27T09:15:30;10.20;;;3.72;;
51560;SDS011;37654;51.262;17.058;2023-05-27T09:17:56;9.15;;;3.20;;
51560;SDS011;37654;51.262;17.058;2023-05-27T09:20:25;9.25;;;3.25;;
51560;SDS011;37654;51.262;17.058;2023-05-27T09:22:55;9.00;;;2.83;;
51560;SDS011;37654;51.262;17.058;2023-05-27T09:25:28;12.30;;;3.38;;
51560;SDS011;37654;51.262;17.058;2023-05-27T09:27:54;8.88;;;2.65;;
51560;SDS011;37654;51.262;17.058;2023-05-27T09:30:20;11.32;;;3.08;;
51560;SDS011;37654;51.262;17.058;2023-05-27T09:32:47;9.15;;;2.92;;
51560;SDS011;37654;51.262;17.058;2023-05-27T09:35:14;6.97;;;2.80;;
51560;SDS011;37654;51.262;17.058;2023-05-27T09:37:40;8.98;;;2.92;;
51560;SDS011;37654;51.262;17.058;2023-05-27T09:40:07;5.72;;;2.40;;
51560;SDS011;37654;51.262;17.058;2023-05-27T09:47:43;7.18;;;2.60;;
51560;SDS011;37654;51.262;17.058;2023-05-27T09:50:14;10.23;;;2.85;;
51560;SDS011;37654;51.262;17.058;2023-05-27T09:52:42;7.32;;;2.50;;
51560;SDS011;37654;51.262;17.058;2023-05-27T09:55:09;5.07;;;2.38;;
51560;SDS011;37654;51.262;17.058;2023-05-27T09:57:38;7.57;;;2.80;;
51560;SDS011;37654;51.262;17.058;2023-05-27T10:00:04;6.13;;;2.28;;
51560;SDS011;37654;51.262;17.058;2023-05-27T10:02:41;5.38;;;2.15;;
51560;SDS011;37654;51.262;17.058;2023-05-27T10:05:08;6.60;;;2.58;;
51560;SDS011;37654;51.262;17.058;2023-05-27T10:07:37;6.80;;;2.40;;
51560;SDS011;37654;51.262;17.058;2023-05-27T10:10:14;23.98;;;4.30;;
51560;SDS011;37654;51.262;17.058;2023-05-27T10:12:45;11.63;;;3.20;;
51560;SDS011;37654;51.262;17.058;2023-05-27T10:18:04;4.40;;;2.38;;
51560;SDS011;37654;51.262;17.058;2023-05-27T10:20:32;5.55;;;2.60;;
51560;SDS011;37654;51.262;17.058;2023-05-27T10:25:40;31.73;;;6.35;;
51560;SDS011;37654;51.262;17.058;2023-05-27T10:28:23;8.05;;;2.45;;
51560;SDS011;37654;51.262;17.058;2023-05-27T10:33:37;8.20;;;2.60;;
51560;SDS011;37654;51.262;17.058;2023-05-27T10:36:16;5.28;;;2.00;;
51560;SDS011;37654;51.262;17.058;2023-05-27T10:38:56;4.47;;;1.70;;
51560;SDS011;37654;51.262;17.058;2023-05-27T10:41:22;168.05;;;21.35;;
51560;SDS011;37654;51.262;17.058;2023-05-27T10:43:56;5.03;;;2.03;;
51560;SDS011;37654;51.262;17.058;2023-05-27T10:46:22;21.23;;;3.42;;
51560;SDS011;37654;51.262;17.058;2023-05-27T10:48:47;4.57;;;2.03;;
51560;SDS011;37654;51.262;17.058;2023-05-27T10:51:13;7.22;;;2.13;;
51560;SDS011;37654;51.262;17.058;2023-05-27T10:53:38;7.28;;;2.30;;
51560;SDS011;37654;51.262;17.058;2023-05-27T10:56:04;6.68;;;2.10;;
51560;SDS011;37654;51.262;17.058;2023-05-27T10:58:34;2.95;;;1.42;;
51560;SDS011;37654;51.262;17.058;2023-05-27T11:01:01;7.10;;;1.90;;
51560;SDS011;37654;51.262;17.058;2023-05-27T11:03:33;6.38;;;2.90;;
51560;SDS011;37654;51.262;17.058;2023-05-27T11:06:03;5.30;;;2.58;;
51560;SDS011;37654;51.262;17.058;2023-05-27T11:08:30;10.18;;;1.90;;
51560;SDS011;37654;51.262;17.058;2023-05-27T11:10:57;3.45;;;1.98;;
51560;SDS011;37654;51.262;17.058;2023-05-27T11:13:29;4.45;;;1.90;;
51560;SDS011;37654;51.262;17.058;2023-05-27T11:15:55;4.38;;;1.90;;
51560;SDS011;37654;51.262;17.058;2023-05-27T11:18:20;3.30;;;1.90;;
51560;SDS011;37654;51.262;17.058;2023-05-27T11:20:46;9.32;;;3.22;;
51560;SDS011;37654;51.262;17.058;2023-05-27T11:23:12;4.82;;;2.03;;
51560;SDS011;37654;51.262;17.058;2023-05-27T11:25:43;7.82;;;2.20;;
51560;SDS011;37654;51.262;17.058;2023-05-27T11:28:13;12.38;;;2.97;;
51560;SDS011;37654;51.262;17.058;2023-05-27T11:30:40;4.78;;;2.25;;
51560;SDS011;37654;51.262;17.058;2023-05-27T11:33:06;6.88;;;2.20;;
51560;SDS011;37654;51.262;17.058;2023-05-27T11:35:31;3.75;;;2.00;;
51560;SDS011;37654;51.262;17.058;2023-05-27T11:37:58;8.65;;;2.53;;
51560;SDS011;37654;51.262;17.058;2023-05-27T11:40:23;15.90;;;3.00;;
51560;SDS011;37654;51.262;17.058;2023-05-27T11:42:49;9.27;;;2.35;;
51560;SDS011;37654;51.262;17.058;2023-05-27T11:45:15;7.18;;;1.30;;
51560;SDS011;37654;51.262;17.058;2023-05-27T11:47:42;5.65;;;1.58;;
51560;SDS011;37654;51.262;17.058;2023-05-27T11:50:08;7.90;;;2.53;;
51560;SDS011;37654;51.262;17.058;2023-05-27T11:52:34;3.30;;;1.60;;
51560;SDS011;37654;51.262;17.058;2023-05-27T11:54:59;4.68;;;2.10;;
51560;SDS011;37654;51.262;17.058;2023-05-27T11:57:25;5.47;;;1.90;;
51560;SDS011;37654;51.262;17.058;2023-05-27T11:59:50;5.10;;;1.60;;
51560;SDS011;37654;51.262;17.058;2023-05-27T12:02:16;3.40;;;2.00;;
51560;SDS011;37654;51.262;17.058;2023-05-27T12:04:41;4.32;;;1.67;;
51560;SDS011;37654;51.262;17.058;2023-05-27T12:07:07;5.95;;;1.77;;
51560;SDS011;37654;51.262;17.058;2023-05-27T12:09:32;5.85;;;2.20;;
51560;SDS011;37654;51.262;17.058;2023-05-27T12:11:58;7.70;;;2.38;;
51560;SDS011;37654;51.262;17.058;2023-05-27T12:14:23;4.80;;;1.65;;
51560;SDS011;37654;51.262;17.058;2023-05-27T12:16:49;5.55;;;2.15;;
51560;SDS011;37654;51.262;17.058;2023-05-27T12:19:14;6.43;;;1.90;;
51560;SDS011;37654;51.262;17.058;2023-05-27T12:21:40;8.40;;;2.88;;
51560;SDS011;37654;51.262;17.058;2023-05-27T12:24:06;6.85;;;1.67;;
51560;SDS011;37654;51.262;17.058;2023-05-27T12:26:32;5.45;;;2.20;;
51560;SDS011;37654;51.262;17.058;2023-05-27T12:28:57;6.13;;;2.20;;
51560;SDS011;37654;51.262;17.058;2023-05-27T12:31:23;5.20;;;1.70;;
51560;SDS011;37654;51.262;17.058;2023-05-27T12:33:49;6.03;;;2.10;;
51560;SDS011;37654;51.262;17.058;2023-05-27T12:36:15;7.30;;;2.05;;
51560;SDS011;37654;51.262;17.058;2023-05-27T12:38:41;5.63;;;2.10;;
51560;SDS011;37654;51.262;17.058;2023-05-27T12:41:06;4.28;;;1.33;;
51560;SDS011;37654;51.262;17.058;2023-05-27T12:43:32;7.35;;;2.63;;
51560;SDS011;37654;51.262;17.058;2023-05-27T12:45:58;5.75;;;1.95;;
51560;SDS011;37654;51.262;17.058;2023-05-27T12:48:24;4.43;;;2.03;;
51560;SDS011;37654;51.262;17.058;2023-05-27T12:50:50;4.38;;;2.22;;
51560;SDS011;37654;51.262;17.058;2023-05-27T12:53:15;7.13;;;1.95;;
51560;SDS011;37654;51.262;17.058;2023-05-27T12:55:42;3.65;;;1.73;;
51560;SDS011;37654;51.262;17.058;2023-05-27T12:58:09;3.88;;;2.10;;
51560;SDS011;37654;51.262;17.058;2023-05-27T13:00:34;6.72;;;1.90;;
51560;SDS011;37654;51.262;17.058;2023-05-27T13:03:00;6.82;;;2.30;;
51560;SDS011;37654;51.262;17.058;2023-05-27T13:05:25;3.75;;;2.17;;
51560;SDS011;37654;51.262;17.058;2023-05-27T13:07:55;5.28;;;2.17;;
51560;SDS011;37654;51.262;17.058;2023-05-27T13:10:22;5.00;;;2.15;;
51560;SDS011;37654;51.262;17.058;2023-05-27T13:12:48;5.57;;;1.85;;
51560;SDS011;37654;51.262;17.058;2023-05-27T13:15:14;5.65;;;1.88;;
51560;SDS011;37654;51.262;17.058;2023-05-27T13:17:41;6.40;;;2.03;;
51560;SDS011;37654;51.262;17.058;2023-05-27T13:20:07;5.10;;;1.90;;
51560;SDS011;37654;51.262;17.058;2023-05-27T13:22:34;7.63;;;1.63;;
51560;SDS011;37654;51.262;17.058;2023-05-27T13:24:59;8.57;;;1.95;;
51560;SDS011;37654;51.262;17.058;2023-05-27T13:27:26;4.32;;;2.00;;
51560;SDS011;37654;51.262;17.058;2023-05-27T13:29:51;6.63;;;1.95;;
51560;SDS011;37654;51.262;17.058;2023-05-27T13:32:17;3.88;;;2.08;;
51560;SDS011;37654;51.262;17.058;2023-05-27T13:34:43;4.47;;;2.15;;
51560;SDS011;37654;51.262;17.058;2023-05-27T13:37:08;5.72;;;2.00;;
51560;SDS011;37654;51.262;17.058;2023-05-27T13:39:33;7.63;;;2.00;;
51560;SDS011;37654;51.262;17.058;2023-05-27T13:41:59;4.28;;;1.75;;
51560;SDS011;37654;51.262;17.058;2023-05-27T13:44:24;5.20;;;1.92;;
51560;SDS011;37654;51.262;17.058;2023-05-27T13:46:50;3.50;;;1.42;;
51560;SDS011;37654;51.262;17.058;2023-05-27T13:49:16;8.13;;;2.22;;
51560;SDS011;37654;51.262;17.058;2023-05-27T13:51:42;4.75;;;2.08;;
51560;SDS011;37654;51.262;17.058;2023-05-27T13:54:10;6.20;;;2.40;;
51560;SDS011;37654;51.262;17.058;2023-05-27T13:56:36;5.47;;;1.58;;
51560;SDS011;37654;51.262;17.058;2023-05-27T13:59:01;3.50;;;1.70;;
51560;SDS011;37654;51.262;17.058;2023-05-27T14:01:28;4.28;;;1.60;;
51560;SDS011;37654;51.262;17.058;2023-05-27T14:03:54;4.40;;;2.05;;
51560;SDS011;37654;51.262;17.058;2023-05-27T14:06:20;5.88;;;2.15;;
51560;SDS011;37654;51.262;17.058;2023-05-27T14:08:45;5.47;;;1.85;;
51560;SDS011;37654;51.262;17.058;2023-05-27T14:11:10;5.53;;;1.90;;
51560;SDS011;37654;51.262;17.058;2023-05-27T14:13:36;15.95;;;2.55;;
51560;SDS011;37654;51.262;17.058;2023-05-27T14:16:01;6.50;;;2.17;;
51560;SDS011;37654;51.262;17.058;2023-05-27T14:18:27;5.57;;;1.42;;
51560;SDS011;37654;51.262;17.058;2023-05-27T14:20:53;8.45;;;2.60;;
51560;SDS011;37654;51.262;17.058;2023-05-27T14:23:18;5.40;;;1.88;;
51560;SDS011;37654;51.262;17.058;2023-05-27T14:25:44;7.30;;;2.83;;
51560;SDS011;37654;51.262;17.058;2023-05-27T14:28:10;3.40;;;1.85;;
51560;SDS011;37654;51.262;17.058;2023-05-27T14:30:35;3.20;;;1.60;;
51560;SDS011;37654;51.262;17.058;2023-05-27T14:33:08;6.70;;;2.03;;
51560;SDS011;37654;51.262;17.058;2023-05-27T14:35:37;4.95;;;1.60;;
51560;SDS011;37654;51.262;17.058;2023-05-27T14:38:03;5.90;;;2.22;;
51560;SDS011;37654;51.262;17.058;2023-05-27T14:40:30;8.00;;;1.85;;
51560;SDS011;37654;51.262;17.058;2023-05-27T14:42:56;5.00;;;1.73;;